sensor_id;sensor_type;location;lat;lon;timestamp;P1;durP1;ratioP1;P2;durP2;ratioP2
13805;SDS011;6974;53.606;9.872;2023-02-24T00:01:37;6.27;;;1.90;;
13805;SDS011;6974;53.606;9.872;2023-02-24T00:04:06;9.93;;;2.20;;
13805;SDS011;6974;53.606;9.872;2023-02-24T00:06:35;8.73;;;3.13;;
13805;SDS011;6974;53.606;9.872;2023-02-24T00:09:05;5.50;;;1.83;;
13805;SDS011;6974;53.606;9.872;2023-02-24T00:11:34;5.83;;;2.43;;
13805;SDS011;6974;53.606;9.872;2023-02-24T00:14:03;7.60;;;1.97;;
13805;SDS011;6974;53.606;9.872;2023-02-24T00:16:30;6.43;;;2.03;;
13805;SDS011;6974;53.606;9.872;2023-02-24T00:18:58;7.30;;;2.20;;
13805;SDS011;6974;53.606;9.872;2023-02-24T00:21:26;6.57;;;2.10;;
13805;SDS011;6974;53.606;9.872;2023-02-24T00:23:53;8.03;;;2.13;;
13805;SDS011;6974;53.606;9.872;2023-02-24T00:26:23;8.07;;;1.90;;
13805;SDS011;6974;53.606;9.872;2023-02-24T00:28:51;6.30;;;1.87;;
13805;SDS011;6974;53.606;9.872;2023-02-24T00:31:18;7.70;;;2.17;;
13805;SDS011;6974;53.606;9.872;2023-02-24T00:33:48;6.20;;;1.73;;
13805;SDS011;6974;53.606;9.872;2023-02-24T00:36:15;6.20;;;1.97;;
13805;SDS011;6974;53.606;9.872;2023-02-24T00:38:49;7.57;;;2.20;;
13805;SDS011;6974;53.606;9.872;2023-02-24T00:41:20;6.53;;;1.97;;
13805;SDS011;6974;53.606;9.872;2023-02-24T00:43:49;7.10;;;1.73;;
13805;SDS011;6974;53.606;9.872;2023-02-24T00:46:17;4.80;;;2.00;;
13805;SDS011;6974;53.606;9.872;2023-02-24T00:48:45;6.77;;;2.10;;
13805;SDS011;6974;53.606;9.872;2023-02-24T00:51:13;6.53;;;1.97;;
13805;SDS011;6974;53.606;9.872;2023-02-24T00:53:42;4.30;;;2.10;;
13805;SDS011;6974;53.606;9.872;2023-02-24T00:56:11;7.00;;;2.40;;
13805;SDS011;6974;53.606;9.872;2023-02-24T00:58:39;9.00;;;1.97;;
13805;SDS011;6974;53.606;9.872;2023-02-24T01:01:10;5.57;;;2.17;;
13805;SDS011;6974;53.606;9.872;2023-02-24T01:03:39;5.50;;;1.97;;
13805;SDS011;6974;53.606;9.872;2023-02-24T01:06:07;6.50;;;1.97;;
13805;SDS011;6974;53.606;9.872;2023-02-24T01:08:33;6.97;;;1.73;;
13805;SDS011;6974;53.606;9.872;2023-02-24T01:11:07;6.23;;;2.10;;
13805;SDS011;6974;53.606;9.872;2023-02-24T01:13:53;10.30;;;2.20;;
13805;SDS011;6974;53.606;9.872;2023-02-24T01:16:20;8.27;;;2.40;;
13805;SDS011;6974;53.606;9.872;2023-02-24T01:18:46;9.30;;;2.13;;
13805;SDS011;6974;53.606;9.872;2023-02-24T01:21:14;7.10;;;2.43;;
13805;SDS011;6974;53.606;9.872;2023-02-24T01:23:41;10.40;;;2.63;;
13805;SDS011;6974;53.606;9.872;2023-02-24T01:26:11;5.77;;;2.00;;
13805;SDS011;6974;53.606;9.872;2023-02-24T01:28:39;7.50;;;2.00;;
13805;SDS011;6974;53.606;9.872;2023-02-24T01:31:08;4.57;;;2.00;;
13805;SDS011;6974;53.606;9.872;2023-02-24T01:33:35;8.43;;;2.50;;
13805;SDS011;6974;53.606;9.872;2023-02-24T01:36:09;7.27;;;2.10;;
13805;SDS011;6974;53.606;9.872;2023-02-24T01:38:37;6.33;;;2.07;;
13805;SDS011;6974;53.606;9.872;2023-02-24T01:41:06;5.93;;;1.97;;
13805;SDS011;6974;53.606;9.872;2023-02-24T01:46:25;6.90;;;2.10;;
13805;SDS011;6974;53.606;9.872;2023-02-24T01:48:54;9.23;;;2.50;;
13805;SDS011;6974;53.606;9.872;2023-02-24T01:51:23;6.90;;;2.23;;
13805;SDS011;6974;53.606;9.872;2023-02-24T01:53:53;6.00;;;1.80;;
13805;SDS011;6974;53.606;9.872;2023-02-24T01:56:20;8.73;;;2.40;;
13805;SDS011;6974;53.606;9.872;2023-02-24T01:58:47;6.37;;;1.80;;
13805;SDS011;6974;53.606;9.872;2023-02-24T02:01:15;5.70;;;1.80;;
13805;SDS011;6974;53.606;9.872;2023-02-24T02:03:45;8.67;;;2.73;;
13805;SDS011;6974;53.606;9.872;2023-02-24T02:06:13;8.00;;;2.50;;
13805;SDS011;6974;53.606;9.872;2023-02-24T02:08:42;6.43;;;2.00;;
13805;SDS011;6974;53.606;9.872;2023-02-24T02:11:11;6.67;;;1.90;;
13805;SDS011;6974;53.606;9.872;2023-02-24T02:13:46;9.40;;;2.40;;
13805;SDS011;6974;53.606;9.872;2023-02-24T02:16:24;9.00;;;2.23;;
13805;SDS011;6974;53.606;9.872;2023-02-24T02:19:04;7.10;;;2.10;;
13805;SDS011;6974;53.606;9.872;2023-02-24T02:21:51;6.13;;;2.23;;
13805;SDS011;6974;53.606;9.872;2023-02-24T02:24:40;4.77;;;1.87;;
13805;SDS011;6974;53.606;9.872;2023-02-24T02:33:13;12.30;;;2.10;;
13805;SDS011;6974;53.606;9.872;2023-02-24T02:36:02;6.33;;;2.20;;
13805;SDS011;6974;53.606;9.872;2023-02-24T02:38:39;7.27;;;2.60;;
13805;SDS011;6974;53.606;9.872;2023-02-24T02:41:17;6.73;;;2.03;;
13805;SDS011;6974;53.606;9.872;2023-02-24T02:43:50;5.93;;;1.87;;
13805;SDS011;6974;53.606;9.872;2023-02-24T02:46:24;4.93;;;2.10;;
13805;SDS011;6974;53.606;9.872;2023-02-24T02:49:00;13.47;;;2.50;;
13805;SDS011;6974;53.606;9.872;2023-02-24T02:51:35;6.83;;;2.23;;
13805;SDS011;6974;53.606;9.872;2023-02-24T02:54:06;4.87;;;1.90;;
13805;SDS011;6974;53.606;9.872;2023-02-24T02:56:39;6.83;;;2.50;;
13805;SDS011;6974;53.606;9.872;2023-02-24T02:59:09;7.40;;;1.80;;
13805;SDS011;6974;53.606;9.872;2023-02-24T03:01:39;4.60;;;1.83;;
13805;SDS011;6974;53.606;9.872;2023-02-24T03:04:08;5.37;;;1.90;;
13805;SDS011;6974;53.606;9.872;2023-02-24T03:06:43;7.63;;;2.30;;
13805;SDS011;6974;53.606;9.872;2023-02-24T03:09:13;6.90;;;2.20;;
13805;SDS011;6974;53.606;9.872;2023-02-24T03:11:45;5.90;;;2.37;;
13805;SDS011;6974;53.606;9.872;2023-02-24T03:14:18;8.90;;;2.07;;
13805;SDS011;6974;53.606;9.872;2023-02-24T03:16:48;10.37;;;2.33;;
13805;SDS011;6974;53.606;9.872;2023-02-24T03:19:18;7.83;;;2.27;;
13805;SDS011;6974;53.606;9.872;2023-02-24T03:21:57;8.13;;;2.90;;
13805;SDS011;6974;53.606;9.872;2023-02-24T03:24:30;7.17;;;2.30;;
13805;SDS011;6974;53.606;9.872;2023-02-24T03:27:02;10.37;;;2.20;;
13805;SDS011;6974;53.606;9.872;2023-02-24T03:29:33;6.87;;;2.60;;
13805;SDS011;6974;53.606;9.872;2023-02-24T03:32:09;8.17;;;1.90;;
13805;SDS011;6974;53.606;9.872;2023-02-24T03:34:41;6.70;;;1.80;;
13805;SDS011;6974;53.606;9.872;2023-02-24T03:37:15;6.23;;;1.97;;
13805;SDS011;6974;53.606;9.872;2023-02-24T03:39:49;9.53;;;2.13;;
13805;SDS011;6974;53.606;9.872;2023-02-24T03:42:17;4.57;;;1.80;;
13805;SDS011;6974;53.606;9.872;2023-02-24T03:44:45;11.70;;;2.57;;
13805;SDS011;6974;53.606;9.872;2023-02-24T03:47:13;6.90;;;1.97;;
13805;SDS011;6974;53.606;9.872;2023-02-24T03:49:44;6.33;;;2.00;;
13805;SDS011;6974;53.606;9.872;2023-02-24T03:52:12;6.33;;;2.33;;
13805;SDS011;6974;53.606;9.872;2023-02-24T03:54:51;7.40;;;2.00;;
13805;SDS011;6974;53.606;9.872;2023-02-24T03:57:35;10.10;;;2.33;;
13805;SDS011;6974;53.606;9.872;2023-02-24T04:00:21;6.93;;;2.03;;
13805;SDS011;6974;53.606;9.872;2023-02-24T04:03:00;8.63;;;2.37;;
13805;SDS011;6974;53.606;9.872;2023-02-24T04:05:32;6.63;;;2.00;;
13805;SDS011;6974;53.606;9.872;2023-02-24T04:08:13;4.90;;;1.77;;
13805;SDS011;6974;53.606;9.872;2023-02-24T04:10:43;9.23;;;2.20;;
13805;SDS011;6974;53.606;9.872;2023-02-24T04:13:17;5.80;;;1.93;;
13805;SDS011;6974;53.606;9.872;2023-02-24T04:15:49;4.63;;;1.60;;
13805;SDS011;6974;53.606;9.872;2023-02-24T04:18:24;7.83;;;2.20;;
13805;SDS011;6974;53.606;9.872;2023-02-24T04:20:53;7.20;;;2.13;;
13805;SDS011;6974;53.606;9.872;2023-02-24T04:23:25;9.27;;;2.00;;
13805;SDS011;6974;53.606;9.872;2023-02-24T04:25:55;5.40;;;2.00;;
13805;SDS011;6974;53.606;9.872;2023-02-24T04:28:22;8.93;;;2.50;;
13805;SDS011;6974;53.606;9.872;2023-02-24T04:30:52;6.50;;;1.80;;
13805;SDS011;6974;53.606;9.872;2023-02-24T04:33:21;8.70;;;1.83;;
13805;SDS011;6974;53.606;9.872;2023-02-24T04:35:49;7.90;;;2.00;;
13805;SDS011;6974;53.606;9.872;2023-02-24T04:38:17;8.50;;;2.03;;
13805;SDS011;6974;53.606;9.872;2023-02-24T04:40:46;5.60;;;2.80;;
13805;SDS011;6974;53.606;9.872;2023-02-24T04:43:13;7.23;;;2.20;;
13805;SDS011;6974;53.606;9.872;2023-02-24T04:45:41;4.73;;;1.77;;
13805;SDS011;6974;53.606;9.872;2023-02-24T04:48:09;7.40;;;2.40;;
13805;SDS011;6974;53.606;9.872;2023-02-24T04:50:38;5.77;;;2.00;;
13805;SDS011;6974;53.606;9.872;2023-02-24T04:53:08;8.87;;;2.23;;
13805;SDS011;6974;53.606;9.872;2023-02-24T04:55:37;10.87;;;2.37;;
13805;SDS011;6974;53.606;9.872;2023-02-24T04:58:07;6.33;;;2.00;;
13805;SDS011;6974;53.606;9.872;2023-02-24T05:00:36;7.87;;;2.27;;
13805;SDS011;6974;53.606;9.872;2023-02-24T05:03:05;3.43;;;1.63;;
13805;SDS011;6974;53.606;9.872;2023-02-24T05:05:34;4.63;;;1.90;;
13805;SDS011;6974;53.606;9.872;2023-02-24T05:08:02;7.33;;;2.20;;
13805;SDS011;6974;53.606;9.872;2023-02-24T05:10:35;4.30;;;1.90;;
13805;SDS011;6974;53.606;9.872;2023-02-24T05:13:03;5.57;;;2.23;;
13805;SDS011;6974;53.606;9.872;2023-02-24T05:15:33;6.47;;;2.20;;
13805;SDS011;6974;53.606;9.872;2023-02-24T05:18:05;7.60;;;2.27;;
13805;SDS011;6974;53.606;9.872;2023-02-24T05:20:35;5.30;;;1.90;;
13805;SDS011;6974;53.606;9.872;2023-02-24T05:23:23;6.07;;;1.93;;
13805;SDS011;6974;53.606;9.872;2023-02-24T05:25:50;7.87;;;2.10;;
13805;SDS011;6974;53.606;9.872;2023-02-24T05:28:19;7.93;;;2.33;;
13805;SDS011;6974;53.606;9.872;2023-02-24T05:30:48;4.47;;;2.17;;
13805;SDS011;6974;53.606;9.872;2023-02-24T05:33:16;13.43;;;2.20;;
13805;SDS011;6974;53.606;9.872;2023-02-24T05:35:45;8.17;;;2.17;;
13805;SDS011;6974;53.606;9.872;2023-02-24T05:38:12;7.83;;;2.07;;
13805;SDS011;6974;53.606;9.872;2023-02-24T05:40:43;7.40;;;2.50;;
13805;SDS011;6974;53.606;9.872;2023-02-24T05:43:12;5.67;;;1.77;;
13805;SDS011;6974;53.606;9.872;2023-02-24T05:45:42;10.57;;;2.10;;
13805;SDS011;6974;53.606;9.872;2023-02-24T05:48:10;6.67;;;2.20;;
13805;SDS011;6974;53.606;9.872;2023-02-24T05:50:39;6.03;;;2.20;;
13805;SDS011;6974;53.606;9.872;2023-02-24T05:53:10;9.53;;;2.03;;
13805;SDS011;6974;53.606;9.872;2023-02-24T05:55:36;5.90;;;2.00;;
13805;SDS011;6974;53.606;9.872;2023-02-24T05:58:03;4.73;;;1.80;;
13805;SDS011;6974;53.606;9.872;2023-02-24T06:00:31;6.93;;;2.13;;
13805;SDS011;6974;53.606;9.872;2023-02-24T06:03:03;4.97;;;2.20;;
13805;SDS011;6974;53.606;9.872;2023-02-24T06:05:34;7.73;;;2.13;;
13805;SDS011;6974;53.606;9.872;2023-02-24T06:08:03;7.77;;;2.03;;
13805;SDS011;6974;53.606;9.872;2023-02-24T06:10:36;10.23;;;2.30;;
13805;SDS011;6974;53.606;9.872;2023-02-24T06:13:04;8.83;;;3.50;;
13805;SDS011;6974;53.606;9.872;2023-02-24T06:15:32;9.47;;;2.33;;
13805;SDS011;6974;53.606;9.872;2023-02-24T06:17:59;7.33;;;2.60;;
13805;SDS011;6974;53.606;9.872;2023-02-24T06:20:26;8.07;;;2.57;;
13805;SDS011;6974;53.606;9.872;2023-02-24T06:22:58;9.63;;;2.10;;
13805;SDS011;6974;53.606;9.872;2023-02-24T06:25:27;6.77;;;2.30;;
13805;SDS011;6974;53.606;9.872;2023-02-24T06:27:58;7.50;;;2.40;;
13805;SDS011;6974;53.606;9.872;2023-02-24T06:30:25;5.60;;;2.50;;
13805;SDS011;6974;53.606;9.872;2023-02-24T06:32:52;5.37;;;2.37;;
13805;SDS011;6974;53.606;9.872;2023-02-24T06:35:20;8.67;;;2.43;;
13805;SDS011;6974;53.606;9.872;2023-02-24T06:37:47;7.03;;;2.33;;
13805;SDS011;6974;53.606;9.872;2023-02-24T06:40:16;4.47;;;2.23;;
13805;SDS011;6974;53.606;9.872;2023-02-24T06:42:44;9.37;;;2.50;;
13805;SDS011;6974;53.606;9.872;2023-02-24T06:45:11;6.27;;;2.50;;
13805;SDS011;6974;53.606;9.872;2023-02-24T06:47:39;7.80;;;2.03;;
13805;SDS011;6974;53.606;9.872;2023-02-24T06:50:07;7.53;;;2.50;;
13805;SDS011;6974;53.606;9.872;2023-02-24T06:52:36;7.00;;;2.90;;
13805;SDS011;6974;53.606;9.872;2023-02-24T06:55:05;5.37;;;2.53;;
13805;SDS011;6974;53.606;9.872;2023-02-24T06:57:50;6.00;;;2.37;;
13805;SDS011;6974;53.606;9.872;2023-02-24T07:00:21;4.63;;;2.23;;
13805;SDS011;6974;53.606;9.872;2023-02-24T07:03:00;6.03;;;2.10;;
13805;SDS011;6974;53.606;9.872;2023-02-24T07:05:38;9.43;;;2.67;;
13805;SDS011;6974;53.606;9.872;2023-02-24T07:08:14;7.30;;;2.30;;
13805;SDS011;6974;53.606;9.872;2023-02-24T07:10:42;6.17;;;2.20;;
13805;SDS011;6974;53.606;9.872;2023-02-24T07:13:11;4.80;;;2.20;;
13805;SDS011;6974;53.606;9.872;2023-02-24T07:15:40;3.90;;;2.20;;
13805;SDS011;6974;53.606;9.872;2023-02-24T07:18:13;4.20;;;2.17;;
13805;SDS011;6974;53.606;9.872;2023-02-24T07:20:40;4.70;;;2.23;;
13805;SDS011;6974;53.606;9.872;2023-02-24T07:23:10;8.40;;;2.90;;
13805;SDS011;6974;53.606;9.872;2023-02-24T07:25:37;6.97;;;2.87;;
13805;SDS011;6974;53.606;9.872;2023-02-24T07:28:05;6.67;;;2.43;;
13805;SDS011;6974;53.606;9.872;2023-02-24T07:30:33;7.10;;;2.40;;
13805;SDS011;6974;53.606;9.872;2023-02-24T07:33:01;6.40;;;2.37;;
13805;SDS011;6974;53.606;9.872;2023-02-24T07:35:28;3.33;;;2.03;;
13805;SDS011;6974;53.606;9.872;2023-02-24T07:37:55;6.73;;;2.60;;
13805;SDS011;6974;53.606;9.872;2023-02-24T07:40:26;5.97;;;2.30;;
13805;SDS011;6974;53.606;9.872;2023-02-24T07:42:57;9.33;;;3.20;;
13805;SDS011;6974;53.606;9.872;2023-02-24T07:45:24;4.17;;;2.50;;
13805;SDS011;6974;53.606;9.872;2023-02-24T07:47:52;6.73;;;2.33;;
13805;SDS011;6974;53.606;9.872;2023-02-24T07:50:19;4.80;;;2.43;;
13805;SDS011;6974;53.606;9.872;2023-02-24T07:52:46;4.20;;;2.70;;
13805;SDS011;6974;53.606;9.872;2023-02-24T07:55:13;4.67;;;2.50;;
13805;SDS011;6974;53.606;9.872;2023-02-24T07:57:41;5.93;;;2.67;;
13805;SDS011;6974;53.606;9.872;2023-02-24T08:00:11;5.70;;;2.50;;
13805;SDS011;6974;53.606;9.872;2023-02-24T08:02:43;4.33;;;2.37;;
13805;SDS011;6974;53.606;9.872;2023-02-24T08:05:11;4.87;;;2.47;;
13805;SDS011;6974;53.606;9.872;2023-02-24T08:07:39;6.10;;;2.40;;
13805;SDS011;6974;53.606;9.872;2023-02-24T08:10:07;4.00;;;2.20;;
13805;SDS011;6974;53.606;9.872;2023-02-24T08:12:38;4.83;;;2.13;;
13805;SDS011;6974;53.606;9.872;2023-02-24T08:15:08;5.07;;;2.30;;
13805;SDS011;6974;53.606;9.872;2023-02-24T08:17:42;2.83;;;1.80;;
13805;SDS011;6974;53.606;9.872;2023-02-24T08:20:12;6.40;;;2.00;;
13805;SDS011;6974;53.606;9.872;2023-02-24T08:22:53;3.83;;;2.10;;
13805;SDS011;6974;53.606;9.872;2023-02-24T08:25:22;4.37;;;2.27;;
13805;SDS011;6974;53.606;9.872;2023-02-24T08:28:00;4.43;;;1.80;;
13805;SDS011;6974;53.606;9.872;2023-02-24T08:30:30;5.17;;;2.40;;
13805;SDS011;6974;53.606;9.872;2023-02-24T08:33:02;4.40;;;2.30;;
13805;SDS011;6974;53.606;9.872;2023-02-24T08:35:32;4.10;;;2.60;;
13805;SDS011;6974;53.606;9.872;2023-02-24T08:38:02;4.47;;;1.87;;
13805;SDS011;6974;53.606;9.872;2023-02-24T08:40:32;3.13;;;1.90;;
13805;SDS011;6974;53.606;9.872;2023-02-24T08:43:14;1.90;;;1.70;;
13805;SDS011;6974;53.606;9.872;2023-02-24T08:45:45;2.33;;;1.77;;
13805;SDS011;6974;53.606;9.872;2023-02-24T08:48:16;4.63;;;2.10;;
13805;SDS011;6974;53.606;9.872;2023-02-24T08:50:52;3.03;;;2.20;;
13805;SDS011;6974;53.606;9.872;2023-02-24T08:53:19;3.83;;;2.20;;
13805;SDS011;6974;53.606;9.872;2023-02-24T08:55:47;3.93;;;2.60;;
13805;SDS011;6974;53.606;9.872;2023-02-24T08:58:16;6.53;;;3.00;;
13805;SDS011;6974;53.606;9.872;2023-02-24T09:00:44;5.43;;;3.47;;
13805;SDS011;6974;53.606;9.872;2023-02-24T09:03:15;3.83;;;3.30;;
13805;SDS011;6974;53.606;9.872;2023-02-24T09:05:56;5.10;;;3.90;;
13805;SDS011;6974;53.606;9.872;2023-02-24T09:08:24;4.50;;;3.70;;
13805;SDS011;6974;53.606;9.872;2023-02-24T09:10:56;4.80;;;3.60;;
13805;SDS011;6974;53.606;9.872;2023-02-24T09:13:24;5.60;;;3.80;;
13805;SDS011;6974;53.606;9.872;2023-02-24T09:15:57;5.57;;;3.50;;
13805;SDS011;6974;53.606;9.872;2023-02-24T09:18:26;5.50;;;3.37;;
13805;SDS011;6974;53.606;9.872;2023-02-24T09:21:07;4.23;;;3.23;;
13805;SDS011;6974;53.606;9.872;2023-02-24T09:23:52;4.90;;;3.03;;
13805;SDS011;6974;53.606;9.872;2023-02-24T09:26:19;4.30;;;2.80;;
13805;SDS011;6974;53.606;9.872;2023-02-24T09:28:46;4.97;;;2.60;;
13805;SDS011;6974;53.606;9.872;2023-02-24T09:31:18;3.07;;;2.60;;
13805;SDS011;6974;53.606;9.872;2023-02-24T09:33:47;5.17;;;2.97;;
13805;SDS011;6974;53.606;9.872;2023-02-24T09:36:17;5.20;;;2.67;;
13805;SDS011;6974;53.606;9.872;2023-02-24T09:38:53;5.50;;;2.50;;
13805;SDS011;6974;53.606;9.872;2023-02-24T09:41:39;4.47;;;2.40;;
13805;SDS011;6974;53.606;9.872;2023-02-24T09:44:30;3.53;;;2.37;;
13805;SDS011;6974;53.606;9.872;2023-02-24T09:47:01;3.23;;;2.40;;
13805;SDS011;6974;53.606;9.872;2023-02-24T09:49:47;2.90;;;2.37;;
13805;SDS011;6974;53.606;9.872;2023-02-24T09:52:22;3.20;;;2.43;;
13805;SDS011;6974;53.606;9.872;2023-02-24T09:55:03;3.70;;;2.13;;
13805;SDS011;6974;53.606;9.872;2023-02-24T09:57:50;4.37;;;2.10;;
13805;SDS011;6974;53.606;9.872;2023-02-24T10:00:49;5.43;;;2.83;;
13805;SDS011;6974;53.606;9.872;2023-02-24T10:03:23;3.90;;;2.57;;
13805;SDS011;6974;53.606;9.872;2023-02-24T10:06:12;4.30;;;2.30;;
13805;SDS011;6974;53.606;9.872;2023-02-24T10:08:47;2.77;;;1.90;;
13805;SDS011;6974;53.606;9.872;2023-02-24T10:11:19;3.83;;;2.00;;
13805;SDS011;6974;53.606;9.872;2023-02-24T10:13:57;3.47;;;2.80;;
13805;SDS011;6974;53.606;9.872;2023-02-24T10:16:29;2.23;;;2.03;;
13805;SDS011;6974;53.606;9.872;2023-02-24T10:19:10;3.53;;;2.43;;
13805;SDS011;6974;53.606;9.872;2023-02-24T10:21:49;4.50;;;2.20;;
13805;SDS011;6974;53.606;9.872;2023-02-24T10:24:28;3.03;;;2.43;;
13805;SDS011;6974;53.606;9.872;2023-02-24T10:27:02;3.10;;;2.20;;
13805;SDS011;6974;53.606;9.872;2023-02-24T10:29:39;2.20;;;2.00;;
13805;SDS011;6974;53.606;9.872;2023-02-24T10:32:20;3.70;;;3.23;;
13805;SDS011;6974;53.606;9.872;2023-02-24T10:34:57;4.00;;;2.83;;
13805;SDS011;6974;53.606;9.872;2023-02-24T10:37:26;2.77;;;2.17;;
13805;SDS011;6974;53.606;9.872;2023-02-24T10:39:56;4.00;;;2.50;;
13805;SDS011;6974;53.606;9.872;2023-02-24T10:42:25;3.00;;;2.50;;
13805;SDS011;6974;53.606;9.872;2023-02-24T10:45:04;3.60;;;3.00;;
13805;SDS011;6974;53.606;9.872;2023-02-24T10:47:38;3.80;;;3.20;;
13805;SDS011;6974;53.606;9.872;2023-02-24T10:50:17;3.60;;;3.00;;
13805;SDS011;6974;53.606;9.872;2023-02-24T10:52:47;3.23;;;2.70;;
13805;SDS011;6974;53.606;9.872;2023-02-24T10:55:37;5.23;;;3.50;;
13805;SDS011;6974;53.606;9.872;2023-02-24T10:58:21;5.40;;;3.60;;
13805;SDS011;6974;53.606;9.872;2023-02-24T11:01:05;4.43;;;3.20;;
13805;SDS011;6974;53.606;9.872;2023-02-24T11:03:46;5.87;;;3.53;;
13805;SDS011;6974;53.606;9.872;2023-02-24T11:06:25;5.70;;;3.90;;
13805;SDS011;6974;53.606;9.872;2023-02-24T11:09:14;4.60;;;3.70;;
13805;SDS011;6974;53.606;9.872;2023-02-24T11:11:58;5.47;;;4.13;;
13805;SDS011;6974;53.606;9.872;2023-02-24T11:14:48;5.37;;;3.80;;
13805;SDS011;6974;53.606;9.872;2023-02-24T11:17:35;7.10;;;3.90;;
13805;SDS011;6974;53.606;9.872;2023-02-24T11:20:03;6.07;;;3.37;;
13805;SDS011;6974;53.606;9.872;2023-02-24T11:22:35;5.53;;;3.93;;
13805;SDS011;6974;53.606;9.872;2023-02-24T11:25:07;4.73;;;3.50;;
13805;SDS011;6974;53.606;9.872;2023-02-24T11:27:41;5.50;;;3.73;;
13805;SDS011;6974;53.606;9.872;2023-02-24T11:30:14;6.20;;;4.07;;
13805;SDS011;6974;53.606;9.872;2023-02-24T11:32:54;5.30;;;3.77;;
13805;SDS011;6974;53.606;9.872;2023-02-24T11:35:27;5.13;;;4.63;;
13805;SDS011;6974;53.606;9.872;2023-02-24T11:38:04;7.07;;;4.30;;
13805;SDS011;6974;53.606;9.872;2023-02-24T11:40:38;6.90;;;3.87;;
13805;SDS011;6974;53.606;9.872;2023-02-24T11:43:10;5.07;;;4.00;;
13805;SDS011;6974;53.606;9.872;2023-02-24T11:45:43;4.70;;;4.20;;
13805;SDS011;6974;53.606;9.872;2023-02-24T11:48:14;5.50;;;3.90;;
13805;SDS011;6974;53.606;9.872;2023-02-24T11:50:45;5.70;;;4.40;;
13805;SDS011;6974;53.606;9.872;2023-02-24T11:53:19;7.80;;;4.50;;
13805;SDS011;6974;53.606;9.872;2023-02-24T11:55:53;7.20;;;5.00;;
13805;SDS011;6974;53.606;9.872;2023-02-24T11:58:29;7.83;;;4.87;;
13805;SDS011;6974;53.606;9.872;2023-02-24T12:01:02;8.20;;;4.97;;
13805;SDS011;6974;53.606;9.872;2023-02-24T12:03:34;7.00;;;4.90;;
13805;SDS011;6974;53.606;9.872;2023-02-24T12:06:12;6.50;;;4.50;;
13805;SDS011;6974;53.606;9.872;2023-02-24T12:08:42;7.37;;;4.50;;
13805;SDS011;6974;53.606;9.872;2023-02-24T12:11:15;8.30;;;4.80;;
13805;SDS011;6974;53.606;9.872;2023-02-24T12:13:49;6.57;;;4.47;;
13805;SDS011;6974;53.606;9.872;2023-02-24T12:16:21;8.63;;;5.13;;
13805;SDS011;6974;53.606;9.872;2023-02-24T12:18:57;8.87;;;5.40;;
13805;SDS011;6974;53.606;9.872;2023-02-24T12:21:28;8.77;;;5.23;;
13805;SDS011;6974;53.606;9.872;2023-02-24T12:23:59;6.13;;;4.80;;
13805;SDS011;6974;53.606;9.872;2023-02-24T12:26:32;8.57;;;4.97;;
13805;SDS011;6974;53.606;9.872;2023-02-24T12:29:28;7.30;;;5.03;;
13805;SDS011;6974;53.606;9.872;2023-02-24T12:32:08;7.43;;;4.90;;
13805;SDS011;6974;53.606;9.872;2023-02-24T12:34:42;7.27;;;5.00;;
13805;SDS011;6974;53.606;9.872;2023-02-24T12:37:34;8.77;;;4.70;;
13805;SDS011;6974;53.606;9.872;2023-02-24T12:40:15;7.30;;;4.40;;
13805;SDS011;6974;53.606;9.872;2023-02-24T12:43:09;7.70;;;4.93;;
13805;SDS011;6974;53.606;9.872;2023-02-24T12:55:48;18.13;;;12.63;;
13805;SDS011;6974;53.606;9.872;2023-02-24T12:58:25;17.23;;;9.53;;
13805;SDS011;6974;53.606;9.872;2023-02-24T13:01:01;10.60;;;7.17;;
13805;SDS011;6974;53.606;9.872;2023-02-24T13:03:41;11.00;;;5.90;;
13805;SDS011;6974;53.606;9.872;2023-02-24T13:06:19;10.63;;;5.50;;
13805;SDS011;6974;53.606;9.872;2023-02-24T13:08:57;9.70;;;6.33;;
13805;SDS011;6974;53.606;9.872;2023-02-24T13:11:35;11.37;;;6.17;;
13805;SDS011;6974;53.606;9.872;2023-02-24T13:14:05;10.30;;;5.73;;
13805;SDS011;6974;53.606;9.872;2023-02-24T13:16:39;13.80;;;5.93;;
13805;SDS011;6974;53.606;9.872;2023-02-24T13:19:16;13.10;;;5.50;;
13805;SDS011;6974;53.606;9.872;2023-02-24T13:22:00;12.03;;;5.70;;
13805;SDS011;6974;53.606;9.872;2023-02-24T13:24:34;12.80;;;5.53;;
13805;SDS011;6974;53.606;9.872;2023-02-24T13:27:18;12.53;;;4.43;;
13805;SDS011;6974;53.606;9.872;2023-02-24T13:29:48;12.87;;;4.93;;
13805;SDS011;6974;53.606;9.872;2023-02-24T13:32:23;12.30;;;3.60;;
13805;SDS011;6974;53.606;9.872;2023-02-24T13:34:53;13.97;;;3.80;;
13805;SDS011;6974;53.606;9.872;2023-02-24T13:37:27;13.67;;;4.60;;
13805;SDS011;6974;53.606;9.872;2023-02-24T13:39:57;13.77;;;4.30;;
13805;SDS011;6974;53.606;9.872;2023-02-24T13:42:24;13.47;;;5.27;;
13805;SDS011;6974;53.606;9.872;2023-02-24T13:44:53;16.70;;;4.40;;
13805;SDS011;6974;53.606;9.872;2023-02-24T13:50:23;16.93;;;3.93;;
13805;SDS011;6974;53.606;9.872;2023-02-24T13:53:02;9.90;;;3.10;;
13805;SDS011;6974;53.606;9.872;2023-02-24T13:55:52;11.03;;;3.00;;
13805;SDS011;6974;53.606;9.872;2023-02-24T13:58:37;10.00;;;2.83;;
13805;SDS011;6974;53.606;9.872;2023-02-24T14:01:18;11.00;;;2.70;;
13805;SDS011;6974;53.606;9.872;2023-02-24T14:04:01;8.43;;;2.63;;
13805;SDS011;6974;53.606;9.872;2023-02-24T14:06:37;11.00;;;3.10;;
13805;SDS011;6974;53.606;9.872;2023-02-24T14:09:04;13.50;;;3.37;;
13805;SDS011;6974;53.606;9.872;2023-02-24T14:11:34;12.07;;;2.90;;
13805;SDS011;6974;53.606;9.872;2023-02-24T14:14:02;11.67;;;3.00;;
13805;SDS011;6974;53.606;9.872;2023-02-24T14:16:30;8.67;;;2.60;;
13805;SDS011;6974;53.606;9.872;2023-02-24T14:19:03;12.10;;;2.97;;
13805;SDS011;6974;53.606;9.872;2023-02-24T14:21:37;8.57;;;2.93;;
13805;SDS011;6974;53.606;9.872;2023-02-24T14:24:13;11.27;;;3.40;;
13805;SDS011;6974;53.606;9.872;2023-02-24T14:26:42;11.83;;;3.57;;
13805;SDS011;6974;53.606;9.872;2023-02-24T14:29:11;14.53;;;3.13;;
13805;SDS011;6974;53.606;9.872;2023-02-24T14:31:45;9.53;;;2.80;;
13805;SDS011;6974;53.606;9.872;2023-02-24T14:34:15;11.07;;;3.27;;
13805;SDS011;6974;53.606;9.872;2023-02-24T14:36:45;11.23;;;3.37;;
13805;SDS011;6974;53.606;9.872;2023-02-24T14:39:14;8.40;;;3.20;;
13805;SDS011;6974;53.606;9.872;2023-02-24T14:41:43;9.43;;;3.53;;
13805;SDS011;6974;53.606;9.872;2023-02-24T14:44:16;13.77;;;2.70;;
13805;SDS011;6974;53.606;9.872;2023-02-24T14:46:45;10.30;;;3.43;;
13805;SDS011;6974;53.606;9.872;2023-02-24T14:49:15;12.20;;;3.53;;
13805;SDS011;6974;53.606;9.872;2023-02-24T14:51:44;13.10;;;4.07;;
13805;SDS011;6974;53.606;9.872;2023-02-24T14:54:17;12.70;;;2.80;;
13805;SDS011;6974;53.606;9.872;2023-02-24T14:56:47;10.67;;;3.00;;
13805;SDS011;6974;53.606;9.872;2023-02-24T14:59:15;8.63;;;2.50;;
13805;SDS011;6974;53.606;9.872;2023-02-24T15:01:47;11.20;;;2.60;;
13805;SDS011;6974;53.606;9.872;2023-02-24T15:04:20;8.70;;;2.50;;
13805;SDS011;6974;53.606;9.872;2023-02-24T15:06:57;8.10;;;2.57;;
13805;SDS011;6974;53.606;9.872;2023-02-24T15:09:26;7.90;;;2.10;;
13805;SDS011;6974;53.606;9.872;2023-02-24T15:12:00;7.07;;;2.27;;
13805;SDS011;6974;53.606;9.872;2023-02-24T15:14:35;7.13;;;2.07;;
13805;SDS011;6974;53.606;9.872;2023-02-24T15:17:03;7.37;;;2.33;;
13805;SDS011;6974;53.606;9.872;2023-02-24T15:19:36;9.50;;;2.40;;
13805;SDS011;6974;53.606;9.872;2023-02-24T15:22:16;10.60;;;2.27;;
13805;SDS011;6974;53.606;9.872;2023-02-24T15:24:45;8.57;;;2.20;;
13805;SDS011;6974;53.606;9.872;2023-02-24T15:27:20;7.00;;;2.17;;
13805;SDS011;6974;53.606;9.872;2023-02-24T15:29:57;8.23;;;2.67;;
13805;SDS011;6974;53.606;9.872;2023-02-24T15:32:27;10.70;;;2.67;;
13805;SDS011;6974;53.606;9.872;2023-02-24T15:34:56;7.87;;;2.13;;
13805;SDS011;6974;53.606;9.872;2023-02-24T15:37:24;8.43;;;2.60;;
13805;SDS011;6974;53.606;9.872;2023-02-24T15:39:55;10.40;;;2.60;;
13805;SDS011;6974;53.606;9.872;2023-02-24T15:42:31;11.27;;;2.83;;
13805;SDS011;6974;53.606;9.872;2023-02-24T15:45:00;11.60;;;2.50;;
13805;SDS011;6974;53.606;9.872;2023-02-24T15:47:30;11.27;;;2.60;;
13805;SDS011;6974;53.606;9.872;2023-02-24T15:50:07;8.07;;;2.30;;
13805;SDS011;6974;53.606;9.872;2023-02-24T15:52:35;8.83;;;2.40;;
13805;SDS011;6974;53.606;9.872;2023-02-24T15:55:02;9.27;;;2.87;;